Time;durP1;ratioP1;P1;durP2;ratioP2;P2;SDS_P1;SDS_P2;PMS_P1;PMS_P2;Temp;Humidity;BMP_temperature;BMP_pressure;BME280_temperature;BME280_humidity;BME280_pressure;Samples;Min_cycle;Max_cycle;Signal;HPM_P1;HPM_P2
2022/08/18 00:00:17;;;;;;;15.83;9.38;;;;;;;20.62;100.00;99079.65;1725728;82;21004;-73
2022/08/18 00:02:43;;;;;;;12.75;8.90;;;;;;;20.62;100.00;99083.80;1717364;82;21051;-74
2022/08/18 00:05:11;;;;;;;15.63;9.18;;;;;;;20.64;100.00;99091.18;1731359;82;21046;-74
2022/08/18 00:07:39;;;;;;;15.15;9.10;;;;;;;20.60;100.00;99089.70;1714727;82;21031;-74
2022/08/18 00:10:06;;;;;;;11.85;8.85;;;;;;;20.59;100.00;99092.23;1718751;82;21047;-73
2022/08/18 00:12:37;;;;;;;17.07;9.45;;;;;;;20.58;100.00;99090.61;1700715;82;21539;-74
2022/08/18 00:15:06;;;;;;;15.03;9.58;;;;;;;20.58;100.00;99087.07;1716920;82;21003;-73
2022/08/18 00:17:33;;;;;;;15.65;9.85;;;;;;;20.56;100.00;99086.60;1722318;82;21000;-73
2022/08/18 00:20:00;;;;;;;15.58;9.00;;;;;;;20.49;100.00;99094.13;1723059;82;21142;-73
2022/08/18 00:22:26;;;;;;;16.55;9.30;;;;;;;20.47;100.00;99088.73;1723951;82;21019;-73
2022/08/18 00:24:55;;;;;;;14.13;8.98;;;;;;;20.45;100.00;99082.73;1726184;82;21067;-74
2022/08/18 00:27:26;;;;;;;15.13;8.93;;;;;;;20.43;100.00;99091.40;1712331;82;21071;-73
2022/08/18 00:29:54;;;;;;;11.73;8.20;;;;;;;20.41;100.00;99091.50;1714393;82;21051;-74
2022/08/18 00:32:24;;;;;;;15.08;8.08;;;;;;;20.38;100.00;99097.73;1710389;82;21008;-74
2022/08/18 00:34:52;;;;;;;16.40;7.90;;;;;;;20.34;100.00;99088.77;1727208;82;21035;-74
2022/08/18 00:37:19;;;;;;;15.98;8.03;;;;;;;20.33;100.00;99084.39;1714269;82;21150;-74
2022/08/18 00:39:45;;;;;;;11.97;7.83;;;;;;;20.32;100.00;99089.72;1726070;82;21542;-73
2022/08/18 00:42:22;;;;;;;10.80;7.72;;;;;;;20.31;100.00;99086.72;1720800;82;21083;-73
2022/08/18 00:44:49;;;;;;;14.07;7.58;;;;;;;20.28;100.00;99079.13;1716685;82;21059;-74
2022/08/18 00:47:15;;;;;;;11.75;7.90;;;;;;;20.27;100.00;99081.66;1732989;82;21079;-73
2022/08/18 00:49:42;;;;;;;12.58;7.17;;;;;;;20.29;100.00;99095.14;1727105;82;21473;-73
2022/08/18 00:52:09;;;;;;;13.65;7.75;;;;;;;20.28;100.00;99090.19;1735411;82;21541;-73
2022/08/18 00:54:40;;;;;;;12.95;7.45;;;;;;;20.27;100.00;99083.58;1736628;82;21067;-73
2022/08/18 00:57:07;;;;;;;12.25;7.12;;;;;;;20.25;100.00;99083.14;1719846;82;21075;-74
2022/08/18 00:59:42;;;;;;;12.05;7.25;;;;;;;20.24;100.00;99085.67;1723405;82;21058;-73
2022/08/18 01:02:13;;;;;;;11.05;6.80;;;;;;;20.21;100.00;99079.47;1738244;82;21043;-72
2022/08/18 01:04:58;;;;;;;10.55;7.12;;;;;;;20.16;100.00;99074.98;1731867;82;21012;-74
2022/08/18 01:07:29;;;;;;;10.10;6.90;;;;;;;20.14;100.00;99080.07;1720067;82;21581;-74
2022/08/18 01:09:59;;;;;;;12.43;7.37;;;;;;;20.12;100.00;99087.89;1727750;82;21530;-73
2022/08/18 01:12:26;;;;;;;11.45;7.00;;;;;;;20.07;100.00;99082.62;1728674;82;21455;-73
2022/08/18 01:14:53;;;;;;;11.73;7.15;;;;;;;20.03;100.00;99083.09;1724521;82;21007;-73
2022/08/18 01:23:16;;;;;;;9.35;6.95;;;;;;;20.02;100.00;99082.05;1729926;82;20976;-73
2022/08/18 01:26:01;;;;;;;11.63;6.28;;;;;;;19.99;100.00;99083.56;1728426;82;21067;-74
2022/08/18 01:28:36;;;;;;;12.70;6.97;;;;;;;19.96;100.00;99080.70;1731558;82;21506;-74
2022/08/18 01:31:03;;;;;;;11.22;6.22;;;;;;;19.93;100.00;99083.59;1723193;82;21023;-74
2022/08/18 01:33:34;;;;;;;13.10;6.67;;;;;;;19.91;100.00;99087.26;1729727;82;21063;-73
2022/08/18 01:36:15;;;;;;;12.90;6.45;;;;;;;19.88;100.00;99095.67;1729365;82;21730;-74
2022/08/18 01:38:45;;;;;;;12.28;6.87;;;;;;;19.88;100.00;99084.63;1723738;82;21019;-74
2022/08/18 01:41:12;;;;;;;11.03;6.12;;;;;;;19.81;100.00;99091.31;1737139;82;21067;-73
2022/08/18 01:43:38;;;;;;;11.45;6.60;;;;;;;19.78;100.00;99091.20;1729996;82;21447;-74
2022/08/18 01:46:05;;;;;;;13.20;7.22;;;;;;;19.76;100.00;99081.09;1734356;82;21090;-73
2022/08/18 01:48:34;;;;;;;8.90;6.03;;;;;;;19.74;100.00;99091.09;1737023;82;21019;-74
2022/08/18 01:51:06;;;;;;;13.38;6.60;;;;;;;19.72;100.00;99089.84;1736899;81;21074;-73
2022/08/18 01:53:34;;;;;;;10.93;6.55;;;;;;;19.69;100.00;99088.59;1741343;82;21347;-74
2022/08/18 01:56:04;;;;;;;10.48;6.35;;;;;;;19.67;100.00;99085.36;1750946;82;21075;-73
2022/08/18 01:58:31;;;;;;;16.93;6.37;;;;;;;19.67;100.00;99085.92;1738462;82;21027;-73
2022/08/18 02:01:00;;;;;;;12.70;6.58;;;;;;;19.66;100.00;99089.86;1736795;82;21038;-72
2022/08/18 02:03:31;;;;;;;14.47;6.40;;;;;;;19.63;100.00;99089.15;1728194;82;21470;-73
2022/08/18 02:06:00;;;;;;;15.80;6.37;;;;;;;19.60;100.00;99091.23;1743490;82;21562;-73
2022/08/18 02:08:26;;;;;;;12.05;5.78;;;;;;;19.60;100.00;99090.66;1731523;82;21026;-73
2022/08/18 02:10:53;;;;;;;11.83;6.15;;;;;;;19.60;100.00;99094.80;1747254;82;21131;-73
2022/08/18 02:13:19;;;;;;;15.72;6.53;;;;;;;19.61;100.00;99096.98;1740543;81;21462;-73
2022/08/18 02:15:45;;;;;;;12.90;6.35;;;;;;;19.62;100.00;99095.84;1729304;82;21027;-73
2022/08/18 02:18:18;;;;;;;11.50;6.33;;;;;;;19.61;100.00;99098.37;1726788;82;21006;-73
2022/08/18 02:20:46;;;;;;;11.45;6.80;;;;;;;19.59;100.00;99097.92;1729129;82;21457;-73
2022/08/18 02:23:13;;;;;;;10.72;6.10;;;;;;;19.58;100.00;99105.97;1741334;82;21022;-73
2022/08/18 02:25:41;;;;;;;14.40;6.17;;;;;;;19.56;100.00;99100.78;1743706;82;21063;-73
2022/08/18 02:28:09;;;;;;;12.07;6.03;;;;;;;19.57;100.00;99095.49;1747219;82;21517;-73
2022/08/18 02:30:38;;;;;;;10.18;5.92;;;;;;;19.56;100.00;99101.34;1731694;82;21054;-72
2022/08/18 02:33:06;;;;;;;11.88;6.00;;;;;;;19.55;100.00;99100.57;1744904;82;20940;-73
2022/08/18 02:35:33;;;;;;;11.22;6.03;;;;;;;19.53;100.00;99102.05;1725751;82;21584;-73
2022/08/18 02:38:01;;;;;;;11.57;5.90;;;;;;;19.50;100.00;99099.41;1731951;82;20987;-74
2022/08/18 02:40:28;;;;;;;11.22;5.83;;;;;;;19.44;100.00;99094.47;1744966;82;21042;-73
2022/08/18 02:42:54;;;;;;;12.28;6.33;;;;;;;19.47;100.00;99103.44;1726076;82;21466;-73
2022/08/18 02:45:26;;;;;;;8.75;5.83;;;;;;;19.45;100.00;99106.53;1724943;82;21114;-73
2022/08/18 02:47:53;;;;;;;12.40;6.30;;;;;;;19.44;100.00;99105.52;1734263;82;21548;-73
2022/08/18 02:50:20;;;;;;;11.45;5.83;;;;;;;19.41;100.00;99102.88;1725063;82;21047;-73
2022/08/18 02:52:47;;;;;;;12.37;6.10;;;;;;;19.43;100.00;99109.41;1728744;82;21003;-73
2022/08/18 02:55:13;;;;;;;10.72;5.72;;;;;;;19.43;100.00;99106.66;1736173;82;20985;-73
2022/08/18 02:57:42;;;;;;;8.10;6.25;;;;;;;19.36;100.00;99099.73;1737042;82;21009;-72
2022/08/18 03:00:12;;;;;;;14.23;6.08;;;;;;;19.41;100.00;99112.53;1732715;82;21034;-72
2022/08/18 03:02:39;;;;;;;10.48;6.20;;;;;;;19.40;100.00;99113.64;1747889;82;20991;-72
2022/08/18 03:05:06;;;;;;;13.45;5.78;;;;;;;19.37;100.00;99112.39;1737845;82;21027;-72
2022/08/18 03:07:33;;;;;;;12.05;6.25;;;;;;;19.36;100.00;99112.15;1731451;82;21003;-73
2022/08/18 03:09:59;;;;;;;13.80;6.20;;;;;;;19.32;100.00;99116.74;1733580;82;21073;-72
2022/08/18 03:12:26;;;;;;;11.57;6.25;;;;;;;19.31;100.00;99118.45;1739569;82;21071;-73
2022/08/18 03:14:53;;;;;;;11.53;6.05;;;;;;;19.30;100.00;99119.05;1740117;82;21027;-72
2022/08/18 03:17:19;;;;;;;13.43;6.42;;;;;;;19.28;100.00;99112.25;1731709;82;21075;-73
2022/08/18 03:19:46;;;;;;;11.85;6.08;;;;;;;19.28;100.00;99114.44;1728991;82;21026;-73
2022/08/18 03:22:13;;;;;;;10.35;6.30;;;;;;;19.26;100.00;99118.13;1744572;82;21628;-73
2022/08/18 03:24:40;;;;;;;15.48;7.62;;;;;;;19.24;100.00;99114.89;1737967;82;21031;-73
2022/08/18 03:27:06;;;;;;;16.67;7.40;;;;;;;19.26;100.00;99117.32;1734222;82;21057;-73
2022/08/18 03:29:34;;;;;;;15.80;7.60;;;;;;;19.20;100.00;99114.56;1727282;82;21043;-74
2022/08/18 03:32:01;;;;;;;14.78;7.22;;;;;;;19.16;100.00;99117.20;1742840;82;21035;-74
2022/08/18 03:34:28;;;;;;;13.68;7.60;;;;;;;19.19;100.00;99112.94;1722489;82;20972;-74
2022/08/18 03:36:55;;;;;;;15.75;8.45;;;;;;;19.22;100.00;99110.30;1726626;82;21062;-73
2022/08/18 03:39:22;;;;;;;14.95;7.90;;;;;;;19.25;100.00;99112.37;1740240;82;20964;-74
2022/08/18 03:41:50;;;;;;;19.92;9.05;;;;;;;19.28;100.00;99110.30;1740165;82;21059;-73
2022/08/18 03:44:16;;;;;;;14.03;8.45;;;;;;;19.31;100.00;99114.31;1744798;82;21011;-74
2022/08/18 03:46:43;;;;;;;14.50;9.98;;;;;;;19.29;100.00;99119.38;1732324;82;21063;-72
2022/08/18 03:49:09;;;;;;;19.40;8.75;;;;;;;19.26;100.00;99116.75;1739642;82;20975;-73
2022/08/18 03:51:36;;;;;;;14.50;7.03;;;;;;;19.29;100.00;99120.77;1731393;82;21082;-72
2022/08/18 03:54:03;;;;;;;14.47;8.55;;;;;;;19.30;100.00;99122.38;1717095;83;21019;-74
2022/08/18 03:56:33;;;;;;;14.60;6.37;;;;;;;19.33;100.00;99116.17;1729865;81;21016;-74
2022/08/18 03:59:03;;;;;;;12.68;6.87;;;;;;;19.37;100.00;99114.34;1732198;82;21499;-72
2022/08/18 04:01:33;;;;;;;11.88;6.90;;;;;;;19.40;100.00;99119.17;1738423;82;21055;-73
2022/08/18 04:04:02;;;;;;;11.75;6.60;;;;;;;19.42;100.00;99124.36;1744338;82;21447;-73
2022/08/18 04:06:49;;;;;;;13.50;6.15;;;;;;;19.52;100.00;99122.54;1724859;82;21049;-74
2022/08/18 04:09:16;;;;;;;10.98;6.30;;;;;;;19.68;100.00;99122.06;1713220;82;21063;-71
2022/08/18 04:11:43;;;;;;;12.30;6.10;;;;;;;19.82;100.00;99120.55;1740790;82;21039;-73
2022/08/18 04:14:16;;;;;;;14.25;5.87;;;;;;;19.93;100.00;99120.07;1738727;82;21479;-72
2022/08/18 04:16:43;;;;;;;11.10;5.45;;;;;;;20.07;100.00;99117.16;1721070;82;21028;-71
2022/08/18 04:19:12;;;;;;;8.95;6.28;;;;;;;20.23;100.00;99121.36;1717080;83;21561;-74
2022/08/18 04:21:41;;;;;;;10.48;5.70;;;;;;;20.29;100.00;99126.35;1716928;83;21551;-73
2022/08/18 04:24:09;;;;;;;13.25;4.85;;;;;;;20.41;100.00;99121.91;1719796;82;20964;-72
2022/08/18 04:26:42;;;;;;;7.97;4.92;;;;;;;20.57;100.00;99126.36;1741215;82;21134;-70
2022/08/18 04:29:09;;;;;;;8.45;5.30;;;;;;;20.71;100.00;99113.49;1746138;81;21580;-71
2022/08/18 04:31:36;;;;;;;14.43;5.72;;;;;;;20.78;100.00;99113.11;1746422;82;21043;-74
2022/08/18 04:34:02;;;;;;;10.93;5.30;;;;;;;20.89;100.00;99117.55;1728094;82;21591;-70
2022/08/18 04:36:30;;;;;;;10.20;5.35;;;;;;;21.00;100.00;99115.06;1739695;82;21148;-73
2022/08/18 04:38:57;;;;;;;11.57;4.92;;;;;;;21.14;100.00;99105.20;1717776;82;21011;-71
2022/08/18 04:41:25;;;;;;;15.10;5.95;;;;;;;21.31;100.00;99110.95;1716835;83;21565;-75
2022/08/18 04:43:54;;;;;;;11.93;5.33;;;;;;;21.38;100.00;99110.31;1720842;82;20988;-73
2022/08/18 04:46:21;;;;;;;9.48;5.42;;;;;;;21.44;100.00;99113.03;1722835;82;21774;-71
2022/08/18 04:48:47;;;;;;;14.03;4.75;;;;;;;21.52;100.00;99111.47;1728181;82;21458;-73
2022/08/18 04:51:16;;;;;;;11.22;5.05;;;;;;;21.60;100.00;99114.64;1734332;81;21075;-72
2022/08/18 04:53:46;;;;;;;10.98;5.03;;;;;;;21.60;100.00;99111.06;1741123;82;21788;-70
2022/08/18 04:56:25;;;;;;;13.20;5.50;;;;;;;21.69;100.00;99117.20;1747825;82;21023;-70
2022/08/18 04:58:57;;;;;;;15.43;5.53;;;;;;;21.86;100.00;99116.80;1749857;82;21031;-71
2022/08/18 05:01:27;;;;;;;13.78;5.58;;;;;;;22.00;100.00;99117.77;1742302;82;21042;-71
2022/08/18 05:05:23;;;;;;;10.68;5.12;;;;;;;22.07;100.00;99113.77;1810288;79;22814;-70
2022/08/18 05:07:50;;;;;;;10.38;5.03;;;;;;;22.09;100.00;99112.22;1758282;80;21034;-72
2022/08/18 05:10:18;;;;;;;8.35;5.37;;;;;;;22.20;100.00;99118.00;1751901;80;21770;-72
2022/08/18 05:12:47;;;;;;;11.43;4.85;;;;;;;22.25;100.00;99108.80;1765190;80;20939;-71
2022/08/18 05:15:13;;;;;;;11.68;5.50;;;;;;;22.22;100.00;99104.56;1760499;80;21533;-72
2022/08/18 05:17:42;;;;;;;9.70;4.90;;;;;;;22.25;100.00;99105.22;1752697;80;21273;-73
2022/08/18 05:20:09;;;;;;;11.40;5.10;;;;;;;22.35;100.00;99114.95;1760432;80;21032;-73
2022/08/18 05:22:40;;;;;;;12.23;4.92;;;;;;;22.39;100.00;99099.97;1755437;80;21040;-74
2022/08/18 05:25:09;;;;;;;9.10;5.28;;;;;;;22.50;100.00;99102.95;1757436;80;21041;-71
2022/08/18 05:27:38;;;;;;;9.00;4.55;;;;;;;22.64;100.00;99097.69;1741513;81;20995;-72
2022/08/18 05:30:07;;;;;;;10.85;5.45;;;;;;;22.95;100.00;99105.86;1755422;82;21027;-73
2022/08/18 05:32:41;;;;;;;11.48;5.72;;;;;;;23.14;100.00;99100.83;1755958;81;21066;-72
2022/08/18 05:35:19;;;;;;;13.00;5.20;;;;;;;23.14;100.00;99100.83;1755814;81;21030;-70
2022/08/18 05:37:55;;;;;;;12.82;5.35;;;;;;;23.23;100.00;99093.06;1755155;81;21062;-72
2022/08/18 05:40:23;;;;;;;;;;;;;;;23.23;100.00;99093.06;1763293;81;21034;-73
2022/08/18 05:42:50;;;;;;;11.50;4.95;;;;;;;23.38;100.00;99097.69;1759084;81;20142;-70
2022/08/18 05:45:18;;;;;;;8.38;5.10;;;;;;;23.33;100.00;99099.38;1760707;81;21527;-72
2022/08/18 05:47:44;;;;;;;9.65;5.10;;;;;;;23.35;100.00;99104.57;1760685;81;21010;-72
2022/08/18 05:50:16;;;;;;;13.22;5.78;;;;;;;23.40;100.00;99101.47;1760393;81;21014;-71
2022/08/18 05:52:56;;;;;;;10.32;4.70;;;;;;;23.51;100.00;99105.25;1760502;81;21538;-73
2022/08/18 05:58:35;;;;;;;9.38;4.80;;;;;;;23.69;100.00;99101.58;1760917;81;21441;-70
2022/08/18 06:01:09;;;;;;;9.25;4.62;;;;;;;23.88;100.00;99104.04;1731727;81;21058;-73
2022/08/18 06:03:49;;;;;;;9.15;4.90;;;;;;;23.92;100.00;99105.67;1730108;81;21155;-72
2022/08/18 06:06:23;;;;;;;6.62;4.50;;;;;;;23.97;100.00;99115.09;1723144;83;21143;-72
2022/08/18 06:09:21;;;;;;;8.45;4.47;;;;;;;24.15;100.00;99109.80;1723341;83;21069;-71
2022/08/18 06:11:48;;;;;;;8.95;4.60;;;;;;;24.40;100.00;99102.59;1715020;82;21088;-73
2022/08/18 06:14:15;;;;;;;13.48;4.30;;;;;;;24.47;100.00;99108.82;1750374;82;21003;-71
2022/08/18 06:17:05;;;;;;;8.80;3.98;;;;;;;24.53;100.00;99108.10;1752379;82;21094;-73
2022/08/18 06:19:40;;;;;;;10.43;4.22;;;;;;;24.70;100.00;99101.94;1752703;82;21027;-71
2022/08/18 06:22:35;;;;;;;11.48;4.92;;;;;;;24.95;100.00;99109.77;1750629;82;21055;-71
2022/08/18 06:25:19;;;;;;;9.40;4.03;;;;;;;25.10;100.00;99110.94;1752647;82;21082;-70
2022/08/18 06:28:05;;;;;;;11.10;4.50;;;;;;;25.12;100.00;99104.38;1752252;82;21050;-71
2022/08/18 06:30:48;;;;;;;12.60;4.00;;;;;;;25.17;100.00;99105.44;1752310;82;21031;-69
2022/08/18 06:33:38;;;;;;;9.13;4.17;;;;;;;25.12;100.00;99100.20;1752121;82;22094;-69
2022/08/18 06:36:25;;;;;;;8.93;4.30;;;;;;;25.21;100.00;99101.28;1752279;82;21077;-72
2022/08/18 06:39:25;;;;;;;9.23;4.08;;;;;;;25.43;100.00;99098.90;1752336;82;21522;-71
2022/08/18 06:41:52;;;;;;;10.63;4.22;;;;;;;25.62;100.00;99095.88;1728204;82;21069;-71
2022/08/18 06:44:32;;;;;;;7.42;3.90;;;;;;;25.85;100.00;99102.61;1722897;83;21460;-71
2022/08/18 06:47:16;;;;;;;10.53;3.83;;;;;;;25.89;100.00;99106.82;1722738;83;21131;-71
2022/08/18 06:49:53;;;;;;;7.65;3.95;;;;;;;25.87;100.00;99111.38;1722851;83;21004;-71
2022/08/18 06:52:30;;;;;;;11.15;3.77;;;;;;;25.79;100.00;99101.36;1713276;84;21087;-72
2022/08/18 06:55:07;;;;;;;9.43;3.80;;;;;;;25.69;100.00;99093.73;1752730;82;21011;-71
2022/08/18 06:57:41;;;;;;;10.60;3.98;;;;;;;25.70;100.00;99108.69;1750814;82;21082;-72
2022/08/18 07:00:22;;;;;;;8.10;4.00;;;;;;;25.83;100.00;99100.79;1709943;84;21023;-71
2022/08/18 07:03:17;;;;;;;7.37;4.03;;;;;;;25.82;100.00;99099.22;1752239;82;21023;-71
2022/08/18 07:06:10;;;;;;;9.05;3.65;;;;;;;25.83;100.00;99098.00;1750462;82;21652;-71
2022/08/18 07:08:41;;;;;;;8.03;3.95;;;;;;;25.80;100.00;99094.60;1752240;82;21039;-70
2022/08/18 07:11:20;;;;;;;8.38;3.90;;;;;;;25.89;100.00;99103.44;1749420;82;21942;-70
2022/08/18 07:14:08;;;;;;;9.28;3.90;;;;;;;26.07;100.00;99099.36;1752045;82;21577;-70
2022/08/18 07:16:34;;;;;;;9.00;3.80;;;;;;;26.16;100.00;99099.20;1752125;82;21086;-72
2022/08/18 07:19:19;;;;;;;9.23;4.20;;;;;;;26.19;100.00;99091.48;1750313;82;21063;-72
2022/08/18 07:21:45;;;;;;;8.75;3.90;;;;;;;26.29;100.00;99096.89;1752216;81;21141;-72
2022/08/18 07:24:28;;;;;;;10.80;4.42;;;;;;;26.45;100.00;99100.76;1752172;82;21058;-73
2022/08/18 07:27:10;;;;;;;10.43;3.95;;;;;;;26.62;100.00;99106.41;1752317;82;21050;-71
2022/08/18 07:29:59;;;;;;;8.90;3.98;;;;;;;26.77;100.00;99097.48;1750323;82;21562;-72
2022/08/18 07:32:30;;;;;;;8.40;4.12;;;;;;;26.93;100.00;99096.53;1752809;81;21038;-72
2022/08/18 07:34:58;;;;;;;12.43;4.42;;;;;;;26.94;100.00;99096.75;1752600;82;21018;-72
2022/08/18 07:38:00;;;;;;;6.83;3.65;;;;;;;26.88;100.00;99097.53;1750281;82;21034;-72
2022/08/18 07:40:38;;;;;;;12.35;4.42;;;;;;;26.87;100.00;99098.72;1714502;84;21039;-71
2022/08/18 07:43:17;;;;;;;16.50;4.45;;;;;;;26.92;100.00;99097.75;1670743;86;21588;-70
2022/08/18 07:45:45;;;;;;;8.60;4.53;;;;;;;27.04;100.00;99100.74;1714466;84;21071;-71
2022/08/18 07:48:17;;;;;;;11.08;4.00;;;;;;;27.15;100.00;99099.57;1724796;82;20971;-71
2022/08/18 07:51:17;;;;;;;8.80;4.53;;;;;;;27.18;100.00;99101.56;1745047;82;21074;-72
2022/08/18 07:54:22;;;;;;;10.68;3.90;;;;;;;27.21;100.00;99098.56;1745319;82;21003;-71
2022/08/18 07:57:15;;;;;;;9.08;4.30;;;;;;;27.16;100.00;99094.78;1746396;82;22003;-71
2022/08/18 07:59:50;;;;;;;8.15;3.92;;;;;;;27.36;100.00;99097.98;1752397;82;21013;-72
2022/08/18 08:02:28;;;;;;;8.50;3.80;;;;;;;27.51;100.00;99089.83;1752283;82;21109;-71
2022/08/18 08:09:18;;;;;;;;;;;;;;;27.58;100.00;99080.04;1814923;79;22961;-71
2022/08/18 08:19:35;;;;;;;;;;;;;;;27.39;100.00;99086.00;1795736;78;23437;-71
2022/08/18 08:22:30;;;;;;;10.18;3.77;;;;;;;27.34;100.00;99094.20;1729936;81;20108;-71
2022/08/18 08:25:27;;;;;;;5.90;3.33;;;;;;;27.24;100.00;99095.59;1733216;82;20999;-71
2022/08/18 08:28:27;;;;;;;10.38;3.60;;;;;;;27.28;100.00;99098.57;1664544;86;21910;-72
2022/08/18 08:31:11;;;;;;;10.90;4.05;;;;;;;27.32;100.00;99102.17;1677382;84;21142;-70
2022/08/18 08:33:51;;;;;;;7.17;3.33;;;;;;;27.32;100.00;99092.98;1673790;84;21142;-69
2022/08/18 08:36:25;;;;;;;7.58;3.70;;;;;;;27.34;100.00;99100.38;1670995;86;21094;-69
2022/08/18 08:39:03;;;;;;;5.87;3.52;;;;;;;27.54;100.00;99109.39;1676202;84;21073;-69
2022/08/18 08:41:41;;;;;;;8.60;3.70;;;;;;;27.69;100.00;99105.40;1673596;86;21034;-72
2022/08/18 08:44:18;;;;;;;9.65;4.17;;;;;;;27.77;100.00;99115.98;1673296;86;21120;-73
2022/08/18 08:46:54;;;;;;;9.05;3.80;;;;;;;27.80;100.00;99119.96;1673412;86;21131;-71
2022/08/18 08:49:29;;;;;;;8.23;2.97;;;;;;;27.66;100.00;99109.59;1691966;84;21034;-70
2022/08/18 08:52:04;;;;;;;8.40;3.55;;;;;;;27.70;100.00;99110.39;1700850;84;21039;-71
2022/08/18 08:54:42;;;;;;;6.87;3.27;;;;;;;27.83;100.00;99101.78;1701861;84;21581;-69
2022/08/18 08:57:09;;;;;;;9.00;3.67;;;;;;;27.85;100.00;99100.77;1696272;84;21089;-70
2022/08/18 08:59:38;;;;;;;10.43;3.33;;;;;;;27.88;100.00;99108.97;1673308;86;21057;-71
2022/08/18 09:02:39;;;;;;;5.67;3.10;;;;;;;27.76;100.00;99100.39;1646541;86;21132;-69
2022/08/18 09:05:13;;;;;;;7.62;3.55;;;;;;;27.59;100.00;99109.01;1654737;86;21476;-70
2022/08/18 09:07:59;;;;;;;7.37;3.10;;;;;;;27.46;100.00;99111.18;1682009;84;21157;-70
2022/08/18 09:10:43;;;;;;;11.73;3.60;;;;;;;27.38;100.00;99099.20;1701579;84;21043;-73
2022/08/18 09:13:37;;;;;;;10.68;3.25;;;;;;;27.41;100.00;99100.39;1701111;84;21129;-69
2022/08/18 09:16:28;;;;;;;10.38;3.58;;;;;;;27.37;100.00;99101.78;1700385;84;21067;-70
2022/08/18 09:19:45;;;;;;;8.70;3.80;;;;;;;27.40;100.00;99103.77;1685702;84;21115;-69
2022/08/18 09:22:50;;;;;;;8.65;3.37;;;;;;;27.53;100.00;99106.39;1681442;85;21135;-69
2022/08/18 09:25:35;;;;;;;8.63;3.25;;;;;;;27.65;100.00;99107.39;1730159;82;20992;-71
2022/08/18 09:28:21;;;;;;;8.63;3.27;;;;;;;27.69;100.00;99117.18;1713082;82;21075;-72
2022/08/18 09:31:06;;;;;;;7.83;3.52;;;;;;;27.57;100.00;99113.38;1711027;83;21550;-69
2022/08/18 09:33:49;;;;;;;10.78;3.45;;;;;;;27.44;100.00;99111.56;1729188;83;21071;-70
2022/08/18 09:36:56;;;;;;;7.25;3.40;;;;;;;27.43;100.00;99105.77;1719744;82;21114;-70
2022/08/18 09:42:41;;;;;;;8.78;3.20;;;;;;;27.36;100.00;99114.16;1692931;83;21098;-71
2022/08/18 09:45:34;;;;;;;9.08;3.55;;;;;;;27.25;100.00;99109.15;1704379;82;21609;-70
2022/08/18 09:48:14;;;;;;;9.28;3.47;;;;;;;27.25;100.00;99113.34;1727633;82;21656;-69
2022/08/18 09:51:17;;;;;;;9.30;3.42;;;;;;;27.17;100.00;99108.96;1729657;82;21099;-70
2022/08/18 09:53:52;;;;;;;9.50;3.33;;;;;;;27.11;100.00;99110.53;1729631;83;21038;-72
2022/08/18 09:56:50;;;;;;;7.22;3.35;;;;;;;27.04;100.00;99108.53;1698022;83;21074;-73
2022/08/18 09:59:47;;;;;;;10.00;3.60;;;;;;;27.00;100.00;99117.50;1700251;84;21067;-70
2022/08/18 10:02:38;;;;;;;7.92;3.85;;;;;;;27.05;100.00;99114.33;1700384;84;21634;-71
2022/08/18 10:05:27;;;;;;;8.75;3.27;;;;;;;27.05;100.00;99112.93;1703750;82;21491;-73
2022/08/18 10:08:15;;;;;;;10.18;3.33;;;;;;;27.15;100.00;99106.55;1729301;82;21030;-74
2022/08/18 10:11:07;;;;;;;10.53;3.45;;;;;;;27.24;100.00;99108.17;1729434;82;21573;-72
2022/08/18 10:13:56;;;;;;;11.43;3.52;;;;;;;27.26;100.00;99102.37;1723463;82;21074;-72
2022/08/18 10:16:43;;;;;;;11.78;3.47;;;;;;;27.26;100.00;99104.36;1716722;83;21090;-71
2022/08/18 10:19:34;;;;;;;6.58;3.22;;;;;;;27.25;100.00;99101.36;1721478;83;21161;-72
2022/08/18 10:22:03;;;;;;;11.18;3.45;;;;;;;27.30;100.00;99100.98;1724411;83;21043;-70
2022/08/18 10:24:53;;;;;;;8.28;3.52;;;;;;;27.33;100.00;99106.56;1671607;83;21062;-69
2022/08/18 10:27:46;;;;;;;9.25;3.55;;;;;;;27.30;100.00;99101.78;1654031;85;21106;-70
2022/08/18 10:30:38;;;;;;;6.60;3.25;;;;;;;27.23;100.00;99108.77;1689933;84;21092;-70
2022/08/18 10:33:11;;;;;;;12.10;3.50;;;;;;;27.24;100.00;99111.77;1700805;84;21058;-69
2022/08/18 10:35:55;;;;;;;8.43;3.37;;;;;;;27.29;100.00;99106.36;1674741;84;21637;-70
2022/08/18 10:38:38;;;;;;;11.30;3.30;;;;;;;27.30;100.00;99114.95;1701130;84;21082;-73
2022/08/18 10:41:09;;;;;;;7.47;3.30;;;;;;;27.30;100.00;99113.55;1701146;84;21070;-72
2022/08/18 10:43:43;;;;;;;8.45;3.67;;;;;;;27.30;100.00;99114.36;1697819;84;21530;-70
2022/08/18 10:46:21;;;;;;;9.35;3.40;;;;;;;27.32;100.00;99104.16;1699741;84;21055;-70
2022/08/18 10:49:15;;;;;;;11.57;3.60;;;;;;;27.42;100.00;99117.36;1700831;84;21608;-70
2022/08/18 10:52:12;;;;;;;9.30;3.60;;;;;;;27.54;100.00;99118.38;1636685;86;21584;-69
2022/08/18 10:55:07;;;;;;;11.48;3.30;;;;;;;27.54;100.00;99114.19;1672910;86;21130;-69
2022/08/18 10:58:04;;;;;;;9.13;3.42;;;;;;;27.54;100.00;99107.19;1672852;86;21063;-70
2022/08/18 11:01:06;;;;;;;9.50;3.40;;;;;;;27.59;100.00;99115.19;1672409;84;21085;-69
2022/08/18 11:04:02;;;;;;;7.20;3.10;;;;;;;27.63;100.00;99115.99;1605911;84;21059;-69
2022/08/18 11:06:28;;;;;;;6.42;3.37;;;;;;;27.59;100.00;99109.01;1689900;84;21142;-69
2022/08/18 11:08:59;;;;;;;9.23;3.98;;;;;;;27.57;100.00;99109.98;1645433;86;21074;-71
2022/08/18 11:11:35;;;;;;;7.25;3.22;;;;;;;27.59;100.00;99107.61;1677853;84;21166;-71
2022/08/18 11:14:33;;;;;;;12.37;3.90;;;;;;;27.65;100.00;99115.78;1701123;84;21038;-70
2022/08/18 11:17:17;;;;;;;8.13;3.45;;;;;;;27.74;100.00;99109.77;1701044;84;21106;-70
2022/08/18 11:19:44;;;;;;;7.53;3.60;;;;;;;27.74;100.00;99111.79;1691441;84;21083;-71
2022/08/18 11:22:29;;;;;;;7.00;3.20;;;;;;;27.76;100.00;99110.77;1662780;85;21042;-70
2022/08/18 11:24:56;;;;;;;8.97;3.53;;;;;;;27.82;100.00;99112.76;1663086;86;21675;-71
2022/08/18 11:27:25;;;;;;;10.78;3.50;;;;;;;27.84;100.00;99102.58;1642032;86;21601;-71
2022/08/18 11:29:52;;;;;;;9.55;3.20;;;;;;;27.83;100.00;99093.98;1642193;86;21061;-70
2022/08/18 11:32:31;;;;;;;11.73;3.87;;;;;;;27.87;100.00;99101.77;1686838;84;21060;-69
2022/08/18 11:35:15;;;;;;;11.68;3.92;;;;;;;27.86;100.00;99092.58;1690553;85;21662;-70
2022/08/18 11:37:58;;;;;;;11.18;3.67;;;;;;;27.83;100.00;99095.38;1737511;82;21044;-71
2022/08/18 11:40:39;;;;;;;12.15;3.30;;;;;;;27.80;100.00;99091.41;1740545;82;21027;-71
2022/08/18 11:43:25;;;;;;;8.83;3.15;;;;;;;27.88;100.00;99083.80;1740873;82;21023;-70
2022/08/18 11:45:55;;;;;;;9.38;3.27;;;;;;;27.98;100.00;99089.37;1740920;82;21099;-69
2022/08/18 11:48:37;;;;;;;8.83;3.20;;;;;;;28.00;100.00;99086.95;1725912;82;21059;-71
2022/08/18 11:51:21;;;;;;;12.85;2.80;;;;;;;28.06;100.00;99082.53;1720875;82;21107;-70
2022/08/18 11:54:01;;;;;;;9.45;3.12;;;;;;;28.05;100.00;99078.16;1717376;82;21106;-69
2022/08/18 11:56:33;;;;;;;6.53;3.35;;;;;;;28.10;100.00;99075.55;1715747;83;21565;-71
2022/08/18 11:59:24;;;;;;;7.00;3.10;;;;;;;28.16;100.00;99073.96;1716120;82;21063;-70
2022/08/18 12:01:53;;;;;;;7.58;3.17;;;;;;;28.24;100.00;99082.50;1716112;82;21028;-70
2022/08/18 12:04:38;;;;;;;9.05;3.60;;;;;;;28.24;100.00;99077.50;1683958;84;21106;-70
2022/08/18 12:07:15;;;;;;;6.55;3.15;;;;;;;28.29;100.00;99088.30;1714695;82;21012;-73
2022/08/18 12:09:47;;;;;;;10.38;3.30;;;;;;;28.28;100.00;99079.09;1677378;85;21052;-73
2022/08/18 12:12:25;;;;;;;6.70;3.27;;;;;;;28.26;100.00;99083.52;1655945;85;21054;-72
2022/08/18 12:14:59;;;;;;;7.42;3.08;;;;;;;28.29;100.00;99085.49;1655075;86;21077;-72
2022/08/18 12:17:26;;;;;;;7.17;3.30;;;;;;;28.33;100.00;99083.48;1655894;86;21045;-72
2022/08/18 12:19:53;;;;;;;7.65;3.15;;;;;;;28.36;100.00;99079.87;1651753;86;21058;-73
2022/08/18 12:22:26;;;;;;;8.45;3.30;;;;;;;28.37;100.00;99078.67;1654656;86;21087;-71
2022/08/18 12:24:53;;;;;;;9.43;3.12;;;;;;;28.37;100.00;99081.47;1634074;88;22160;-71